createdAt,value
2019-03-22T00:01:22.599Z,10.00
2019-03-22T00:03:54.720Z,10.67
2019-03-22T00:06:26.699Z,11.03
2019-03-22T00:08:58.509Z,10.23
2019-03-22T00:11:31.151Z,10.57
2019-03-22T00:14:03.334Z,11.23
2019-03-22T00:16:34.589Z,11.63
2019-03-22T00:19:06.486Z,11.90
2019-03-22T00:21:38.329Z,12.87
2019-03-22T00:24:10.074Z,12.47
2019-03-22T00:26:41.927Z,11.67
2019-03-22T00:29:14.317Z,10.50
2019-03-22T00:31:46.230Z,10.00
2019-03-22T00:34:18.359Z,11.93
2019-03-22T00:36:50.219Z,10.40
2019-03-22T00:39:22.333Z,11.13
2019-03-22T00:41:54.281Z,11.33
2019-03-22T00:44:26.221Z,10.90
2019-03-22T00:46:57.964Z,11.73
2019-03-22T00:49:30.175Z,11.67
2019-03-22T00:52:02.920Z,11.90
2019-03-22T00:54:34.871Z,11.97
2019-03-22T00:57:06.811Z,11.60
2019-03-22T00:59:38.731Z,11.87
2019-03-22T01:02:10.343Z,11.60
2019-03-22T01:04:42.122Z,10.50
2019-03-22T01:07:13.535Z,11.80
2019-03-22T01:09:45.026Z,11.13
2019-03-22T01:12:16.436Z,12.00
2019-03-22T01:14:48.173Z,12.40
2019-03-22T01:17:20.053Z,13.27
2019-03-22T01:19:51.654Z,14.27
2019-03-22T01:22:23.491Z,16.10
2019-03-22T01:24:55.127Z,14.87
2019-03-22T01:27:26.950Z,15.90
2019-03-22T01:29:58.632Z,15.40
2019-03-22T01:32:30.126Z,15.87
2019-03-22T01:35:01.612Z,15.23
2019-03-22T01:37:33.332Z,15.70
2019-03-22T01:40:05.749Z,16.03
2019-03-22T01:42:37.598Z,14.83
2019-03-22T01:45:10.280Z,14.50
2019-03-22T01:47:41.901Z,14.60
2019-03-22T01:50:13.861Z,13.93
2019-03-22T01:52:46.138Z,15.37
2019-03-22T01:55:18.177Z,14.50
2019-03-22T01:57:53.727Z,14.67
2019-03-22T02:00:23.963Z,14.57
2019-03-22T02:02:55.727Z,14.57
2019-03-22T02:05:27.490Z,13.83
2019-03-22T02:07:59.956Z,14.73
2019-03-22T02:10:31.672Z,13.50
2019-03-22T02:13:03.424Z,14.30
2019-03-22T02:15:35.269Z,14.27
2019-03-22T02:18:07.187Z,15.03
2019-03-22T02:20:38.734Z,15.30
2019-03-22T02:23:10.655Z,14.30
2019-03-22T02:25:42.168Z,14.40
2019-03-22T02:28:14.270Z,14.53
2019-03-22T02:30:46.494Z,15.73
2019-03-22T02:33:17.806Z,14.93
2019-03-22T02:35:49.378Z,14.57
2019-03-22T02:38:21.271Z,14.33
2019-03-22T02:40:53.102Z,14.70
2019-03-22T02:43:24.389Z,14.43
2019-03-22T02:45:55.862Z,14.23
2019-03-22T02:48:27.463Z,14.37
2019-03-22T02:50:59.445Z,13.73
2019-03-22T02:53:31.530Z,13.63
2019-03-22T02:56:03.139Z,13.67
2019-03-22T02:58:34.756Z,13.97
2019-03-22T03:01:06.501Z,13.37
2019-03-22T03:03:38.291Z,13.63
2019-03-22T03:06:09.806Z,13.37
2019-03-22T03:08:41.316Z,12.73
2019-03-22T03:11:12.896Z,13.70
2019-03-22T03:13:44.632Z,13.23
2019-03-22T03:16:16.280Z,13.07
2019-03-22T03:18:47.668Z,13.20
2019-03-22T03:21:18.948Z,13.63
2019-03-22T03:23:50.816Z,13.80
2019-03-22T03:26:22.346Z,12.80
2019-03-22T03:28:54.074Z,14.33
2019-03-22T03:31:25.745Z,14.73
2019-03-22T03:33:58.093Z,13.27
2019-03-22T03:36:30.060Z,13.50
2019-03-22T03:39:01.936Z,13.23
2019-03-22T03:41:33.380Z,13.40
2019-03-22T03:44:04.863Z,13.67
2019-03-22T03:46:37.467Z,14.47
2019-03-22T03:49:08.749Z,13.83
2019-03-22T03:51:41.101Z,13.53
2019-03-22T03:54:13.050Z,13.73
2019-03-22T03:56:44.917Z,13.83
2019-03-22T03:59:16.721Z,16.00
2019-03-22T04:01:48.604Z,14.57
2019-03-22T04:04:20.551Z,14.47
2019-03-22T04:06:51.722Z,15.13
2019-03-22T04:09:23.764Z,14.43
2019-03-22T04:11:54.961Z,14.57
2019-03-22T04:14:27.045Z,14.40
2019-03-22T04:16:58.872Z,15.43
2019-03-22T04:19:30.392Z,14.70
2019-03-22T04:22:02.372Z,15.27
2019-03-22T04:24:34.327Z,59.83
2019-03-22T04:27:06.286Z,17.23
2019-03-22T04:29:38.243Z,14.87
2019-03-22T04:32:09.406Z,15.50
2019-03-22T04:34:40.856Z,14.30
2019-03-22T04:37:12.075Z,15.47
2019-03-22T04:39:43.535Z,16.70
2019-03-22T04:42:16.682Z,17.67
2019-03-22T04:44:48.659Z,17.97
2019-03-22T04:47:22.453Z,17.87
2019-03-22T04:49:54.910Z,17.97
2019-03-22T04:52:27.667Z,16.67
2019-03-22T04:55:01.338Z,17.10
2019-03-22T04:57:33.784Z,17.47
2019-03-22T05:00:05.895Z,17.70
2019-03-22T05:02:39.221Z,17.63
2019-03-22T05:05:12.599Z,19.43
2019-03-22T05:07:45.311Z,17.80
2019-03-22T05:10:18.779Z,18.67
2019-03-22T05:12:51.212Z,20.07
2019-03-22T05:15:24.290Z,19.33
2019-03-22T05:17:56.439Z,18.53
2019-03-22T05:20:29.347Z,19.07
2019-03-22T05:23:02.382Z,21.20
2019-03-22T05:25:35.026Z,19.73
2019-03-22T05:28:08.335Z,20.27
2019-03-22T05:31:16.603Z,20.53
2019-03-22T05:33:49.507Z,20.23
2019-03-22T05:36:20.836Z,22.17
2019-03-22T05:38:53.496Z,20.60
2019-03-22T05:41:24.940Z,22.17
2019-03-22T05:43:56.610Z,19.87
2019-03-22T05:46:27.701Z,20.43
2019-03-22T05:48:59.668Z,20.93
2019-03-22T05:51:30.965Z,20.27
2019-03-22T05:54:02.496Z,20.40
2019-03-22T05:56:33.765Z,20.20
2019-03-22T05:59:05.053Z,20.07
2019-03-22T06:01:36.208Z,20.73
2019-03-22T06:04:07.306Z,20.10
2019-03-22T06:06:38.367Z,16.23
2019-03-22T06:09:10.392Z,17.23
2019-03-22T06:11:41.582Z,15.77
2019-03-22T06:14:12.704Z,15.87
2019-03-22T06:16:43.837Z,13.10
2019-03-22T06:19:15.171Z,15.53
2019-03-22T06:21:46.282Z,13.90
2019-03-22T06:24:17.342Z,14.10
2019-03-22T06:26:48.540Z,13.20
2019-03-22T06:29:19.687Z,10.70
2019-03-22T06:31:50.980Z,11.77
2019-03-22T06:34:22.232Z,11.67
2019-03-22T06:36:53.387Z,11.00
2019-03-22T06:39:24.611Z,10.97
2019-03-22T06:41:55.747Z,10.60
2019-03-22T06:44:26.805Z,10.80
2019-03-22T06:46:57.869Z,10.50
2019-03-22T06:49:29.068Z,9.77
2019-03-22T06:52:00.168Z,9.37
2019-03-22T06:54:32.111Z,9.67
2019-03-22T06:57:03.608Z,10.17
2019-03-22T06:59:34.861Z,8.53
2019-03-22T07:02:06.259Z,9.30
2019-03-22T07:04:37.386Z,9.53
2019-03-22T07:07:08.623Z,8.17
2019-03-22T07:09:39.782Z,8.97
2019-03-22T07:12:10.950Z,9.17
2019-03-22T07:14:42.217Z,10.47
2019-03-22T07:17:13.546Z,11.57
2019-03-22T07:19:44.859Z,13.37
2019-03-22T07:22:16.096Z,13.93
2019-03-22T07:24:47.223Z,14.77
2019-03-22T07:27:18.319Z,12.47
2019-03-22T07:29:49.629Z,12.37
2019-03-22T07:32:20.726Z,12.87
2019-03-22T07:34:51.866Z,14.57
2019-03-22T07:37:23.252Z,14.90
2019-03-22T07:39:54.582Z,15.37
2019-03-22T07:42:25.955Z,15.40
2019-03-22T07:44:57.074Z,14.77
2019-03-22T07:47:28.592Z,16.03
2019-03-22T07:49:59.780Z,16.90
2019-03-22T07:52:31.002Z,16.50
2019-03-22T07:55:02.094Z,16.80
2019-03-22T07:57:33.349Z,15.40
2019-03-22T08:00:05.138Z,14.87
2019-03-22T08:02:36.423Z,17.40
2019-03-22T08:05:08.705Z,16.03
2019-03-22T08:07:39.989Z,17.47
2019-03-22T08:10:12.515Z,17.00
2019-03-22T08:12:43.845Z,17.13
2019-03-22T08:15:26.052Z,17.10
2019-03-22T08:17:57.387Z,17.63
2019-03-22T08:20:28.650Z,17.23
2019-03-22T08:23:00.089Z,18.37
2019-03-22T08:25:32.436Z,19.17
2019-03-22T08:28:04.101Z,18.73
2019-03-22T08:30:43.087Z,19.00
2019-03-22T08:33:08.168Z,18.33
2019-03-22T08:35:39.406Z,18.50
2019-03-22T08:38:10.657Z,18.30
2019-03-22T08:40:41.803Z,19.50
2019-03-22T08:43:12.975Z,18.67
2019-03-22T08:45:44.142Z,18.90
2019-03-22T08:48:15.388Z,19.20
2019-03-22T08:50:46.627Z,19.00
2019-03-22T08:53:17.742Z,19.03
2019-03-22T08:55:48.981Z,18.10
2019-03-22T08:58:20.548Z,18.83
2019-03-22T09:00:57.204Z,17.50
2019-03-22T09:03:24.715Z,18.47
2019-03-22T09:05:55.785Z,19.30
2019-03-22T09:08:27.039Z,18.00
2019-03-22T09:10:58.196Z,18.87
2019-03-22T09:13:29.271Z,18.70
2019-03-22T09:16:00.475Z,19.17
2019-03-22T09:18:31.623Z,18.40
2019-03-22T09:21:02.810Z,18.90
2019-03-22T09:23:33.828Z,16.57
2019-03-22T09:26:04.992Z,15.23
2019-03-22T09:28:36.071Z,16.07
2019-03-22T09:31:10.930Z,13.93
2019-03-22T09:33:40.094Z,13.70
2019-03-22T09:36:11.393Z,13.80
2019-03-22T09:38:42.552Z,14.30
2019-03-22T09:41:13.845Z,15.97
2019-03-22T09:43:44.838Z,15.37
2019-03-22T09:46:17.503Z,14.23
2019-03-22T09:48:48.596Z,14.30
2019-03-22T09:51:19.762Z,13.70
2019-03-22T09:53:50.971Z,15.73
2019-03-22T09:56:22.154Z,14.97
2019-03-22T09:58:53.541Z,14.23
2019-03-22T10:01:24.824Z,12.73
2019-03-22T10:03:56.064Z,12.40
2019-03-22T10:06:27.329Z,26.17
2019-03-22T10:08:58.470Z,13.60
2019-03-22T10:11:29.652Z,13.23
2019-03-22T10:14:00.825Z,13.83
2019-03-22T10:16:31.933Z,12.10
2019-03-22T10:19:03.002Z,13.10
2019-03-22T10:21:34.304Z,12.57
2019-03-22T10:24:24.053Z,13.20
2019-03-22T10:26:55.187Z,12.97
2019-03-22T10:29:26.344Z,13.57
2019-03-22T10:31:57.636Z,14.83
2019-03-22T10:34:28.923Z,13.87
2019-03-22T10:37:00.199Z,14.00
2019-03-22T10:39:32.642Z,12.70
2019-03-22T10:42:03.777Z,12.90
2019-03-22T10:44:34.803Z,13.43
2019-03-22T10:47:06.422Z,12.57
2019-03-22T10:49:41.907Z,12.83
2019-03-22T10:52:12.644Z,12.23
2019-03-22T10:54:50.062Z,17.77
2019-03-22T10:57:21.493Z,12.20
2019-03-22T10:59:52.618Z,12.33
2019-03-22T11:02:23.763Z,14.00
2019-03-22T11:04:54.877Z,10.97
2019-03-22T11:07:26.074Z,11.47
2019-03-22T11:09:57.241Z,12.00
2019-03-22T11:12:28.470Z,11.67
2019-03-22T11:14:59.631Z,11.27
2019-03-22T11:17:30.830Z,12.30
2019-03-22T11:20:02.200Z,11.67
2019-03-22T11:22:33.306Z,11.13
2019-03-22T11:25:05.390Z,11.57
2019-03-22T11:27:36.654Z,11.63
2019-03-22T11:30:11.563Z,13.17
2019-03-22T11:32:43.228Z,12.83
2019-03-22T11:35:15.402Z,11.13
2019-03-22T11:37:46.814Z,12.90
2019-03-22T11:40:20.011Z,12.00
2019-03-22T11:42:51.587Z,11.10
2019-03-22T11:45:24.690Z,11.67
2019-03-22T11:47:56.245Z,9.90
2019-03-22T11:50:28.982Z,11.17
2019-03-22T11:53:00.430Z,11.43
2019-03-22T11:55:31.934Z,10.50
2019-03-22T11:58:03.213Z,9.67
2019-03-22T12:00:37.401Z,9.60
2019-03-22T12:03:08.663Z,10.60
2019-03-22T12:05:40.713Z,9.43
2019-03-22T12:08:12.658Z,9.57
2019-03-22T12:10:43.867Z,9.10
2019-03-22T12:13:15.765Z,10.07
2019-03-22T12:15:47.015Z,9.60
2019-03-22T12:18:18.744Z,9.80
2019-03-22T12:20:50.442Z,11.60
2019-03-22T12:23:21.762Z,10.17
2019-03-22T12:25:53.408Z,9.57
2019-03-22T12:28:25.447Z,9.50
2019-03-22T12:30:57.286Z,9.20
2019-03-22T12:33:29.172Z,10.10
2019-03-22T12:36:00.915Z,9.37
2019-03-22T12:38:33.109Z,8.90
2019-03-22T12:41:05.131Z,8.73
2019-03-22T12:43:36.671Z,8.10
2019-03-22T12:46:08.238Z,9.43
2019-03-22T12:48:39.983Z,9.60
2019-03-22T12:51:11.797Z,9.50
2019-03-22T12:53:43.712Z,9.97
2019-03-22T12:56:14.872Z,10.13
2019-03-22T12:58:46.620Z,10.90
2019-03-22T13:01:18.433Z,10.20
2019-03-22T13:03:50.224Z,11.90
2019-03-22T13:06:21.804Z,10.37
2019-03-22T13:08:53.608Z,9.60
2019-03-22T13:11:25.235Z,10.80
2019-03-22T13:13:56.605Z,10.50
2019-03-22T13:16:27.877Z,10.17
2019-03-22T13:18:59.249Z,10.30
2019-03-22T13:21:30.457Z,9.87
2019-03-22T13:24:01.651Z,9.60
2019-03-22T13:26:32.840Z,9.57
2019-03-22T13:29:04.083Z,10.50
2019-03-22T13:31:35.311Z,10.53
2019-03-22T13:34:06.571Z,9.83
2019-03-22T13:36:37.856Z,10.33
2019-03-22T13:39:09.875Z,9.70
2019-03-22T13:41:41.027Z,10.00
2019-03-22T13:44:12.248Z,10.37
2019-03-22T13:46:43.487Z,9.30
2019-03-22T13:49:14.846Z,10.70
2019-03-22T13:51:45.998Z,9.33
2019-03-22T13:54:17.154Z,9.93
2019-03-22T13:56:48.350Z,9.97
2019-03-22T13:59:19.744Z,9.33
2019-03-22T14:01:51.259Z,10.40
2019-03-22T14:04:22.460Z,9.47
2019-03-22T14:06:53.656Z,9.70
2019-03-22T14:09:24.870Z,9.47
2019-03-22T14:11:56.274Z,9.40
2019-03-22T14:14:27.991Z,10.20
2019-03-22T14:16:59.707Z,9.90
2019-03-22T14:19:31.395Z,9.80
2019-03-22T14:22:03.081Z,9.30
2019-03-22T14:24:34.483Z,16.73
2019-03-22T14:27:06.049Z,10.17
2019-03-22T14:29:37.734Z,9.33
2019-03-22T14:32:09.374Z,9.87
2019-03-22T14:34:41.082Z,9.80
2019-03-22T14:37:12.694Z,9.60
2019-03-22T14:39:43.977Z,9.17
2019-03-22T14:42:15.831Z,10.60
2019-03-22T14:44:47.422Z,9.30
2019-03-22T14:47:19.227Z,10.03
2019-03-22T14:49:50.891Z,14.87
2019-03-22T14:52:22.896Z,9.47
2019-03-22T14:54:54.224Z,9.57
2019-03-22T14:57:25.729Z,10.17
2019-03-22T14:59:59.216Z,14.23
2019-03-22T15:02:30.012Z,21.37
2019-03-22T15:05:01.168Z,10.97
2019-03-22T15:07:32.343Z,10.60
2019-03-22T15:10:03.582Z,10.10
2019-03-22T15:12:34.935Z,13.57
2019-03-22T15:15:17.264Z,11.70
2019-03-22T15:18:06.406Z,10.63
2019-03-22T15:20:55.942Z,10.07
2019-03-22T15:23:44.763Z,10.13
2019-03-22T15:26:37.064Z,20.80
2019-03-22T15:29:33.310Z,10.33
2019-03-22T15:32:38.923Z,12.70
2019-03-22T15:35:34.962Z,15.00
2019-03-22T15:38:24.274Z,11.60
2019-03-22T15:40:55.471Z,11.23
2019-03-22T15:43:26.704Z,12.30
2019-03-22T15:45:58.025Z,11.27
2019-03-22T15:48:29.233Z,11.03
2019-03-22T15:51:00.426Z,11.90
2019-03-22T15:53:31.678Z,11.90
2019-03-22T15:56:02.705Z,10.70
2019-03-22T15:58:33.917Z,10.80
2019-03-22T16:01:05.516Z,10.67
2019-03-22T16:03:44.101Z,11.10
2019-03-22T16:06:10.442Z,13.63
2019-03-22T16:08:41.649Z,11.97
2019-03-22T16:11:12.843Z,12.80
2019-03-22T16:13:44.097Z,13.03
2019-03-22T16:16:15.455Z,12.30
2019-03-22T16:18:46.816Z,11.57
2019-03-22T16:21:18.059Z,11.17
2019-03-22T16:23:49.147Z,10.90
2019-03-22T16:26:20.175Z,10.43
2019-03-22T16:28:51.555Z,10.33
2019-03-22T16:31:22.865Z,10.37
2019-03-22T16:33:54.734Z,9.83
2019-03-22T16:36:26.493Z,10.40
2019-03-22T16:38:57.700Z,10.23
2019-03-22T16:41:28.811Z,10.63
2019-03-22T16:43:59.981Z,10.47
2019-03-22T16:46:31.059Z,11.37
2019-03-22T16:49:02.240Z,10.80
2019-03-22T16:51:33.419Z,10.47
2019-03-22T16:54:04.665Z,10.70
2019-03-22T16:56:35.726Z,10.13
2019-03-22T16:59:07.063Z,10.60
2019-03-22T17:01:38.185Z,11.03
2019-03-22T17:04:09.275Z,12.50
2019-03-22T17:06:40.390Z,11.33
2019-03-22T17:09:11.554Z,12.87
2019-03-22T17:11:42.806Z,13.50
2019-03-22T17:14:14.172Z,14.03
2019-03-22T17:16:45.430Z,13.27
2019-03-22T17:19:16.562Z,14.33
2019-03-22T17:21:47.709Z,14.40
2019-03-22T17:24:19.096Z,15.70
2019-03-22T17:26:50.537Z,14.53
2019-03-22T17:29:23.597Z,15.30
2019-03-22T17:31:54.868Z,15.27
2019-03-22T17:34:26.143Z,16.77
2019-03-22T17:36:57.932Z,17.23
2019-03-22T17:39:29.637Z,16.97
2019-03-22T17:42:01.040Z,18.73
2019-03-22T17:44:32.095Z,17.37
2019-03-22T17:47:03.253Z,17.67
2019-03-22T17:49:34.417Z,18.80
2019-03-22T17:52:05.538Z,16.87
2019-03-22T17:54:37.277Z,17.47
2019-03-22T17:57:18.172Z,16.47
2019-03-22T17:59:42.575Z,15.83
2019-03-22T18:02:14.462Z,15.17
2019-03-22T18:04:45.974Z,16.40
2019-03-22T18:07:17.539Z,17.10
2019-03-22T18:09:49.356Z,16.50
2019-03-22T18:12:21.046Z,18.57
2019-03-22T18:14:52.911Z,17.27
2019-03-22T18:17:24.642Z,16.10
2019-03-22T18:19:56.581Z,17.13
2019-03-22T18:22:30.360Z,16.77
2019-03-22T18:25:01.435Z,16.40
2019-03-22T18:27:33.058Z,17.17
2019-03-22T18:30:04.973Z,17.30
2019-03-22T18:32:36.440Z,17.93
2019-03-22T18:35:08.415Z,15.57
2019-03-22T18:37:40.044Z,16.70
2019-03-22T18:40:12.522Z,16.30
2019-03-22T18:42:44.027Z,16.97
2019-03-22T18:45:16.563Z,16.60
2019-03-22T18:47:48.469Z,17.13
2019-03-22T18:50:19.932Z,17.57
2019-03-22T18:52:51.177Z,18.60
2019-03-22T18:55:22.592Z,17.17
2019-03-22T18:57:53.771Z,17.00
2019-03-22T19:00:26.226Z,17.60
2019-03-22T19:02:57.836Z,17.73
2019-03-22T19:05:29.093Z,17.50
2019-03-22T19:08:00.802Z,16.87
2019-03-22T19:10:34.202Z,17.67
2019-03-22T19:13:07.710Z,18.70
2019-03-22T19:15:38.738Z,18.23
2019-03-22T19:18:10.200Z,17.33
2019-03-22T19:20:41.588Z,18.10
2019-03-22T19:23:13.126Z,16.30
2019-03-22T19:25:45.593Z,17.20
2019-03-22T19:28:17.099Z,17.27
2019-03-22T19:30:48.526Z,16.30
2019-03-22T19:33:20.231Z,17.53
2019-03-22T19:35:51.671Z,16.33
2019-03-22T19:38:23.947Z,16.97
2019-03-22T19:40:55.589Z,18.23
2019-03-22T19:43:27.505Z,19.73
2019-03-22T19:45:58.735Z,19.17
2019-03-22T19:48:30.709Z,21.17
2019-03-22T19:51:01.986Z,21.87
2019-03-22T19:53:34.112Z,22.57
2019-03-22T19:56:06.387Z,22.70
2019-03-22T19:58:38.677Z,24.47
2019-03-22T20:01:10.584Z,22.83
2019-03-22T20:03:42.147Z,24.00
2019-03-22T20:06:14.191Z,23.00
2019-03-22T20:08:46.525Z,25.30
2019-03-22T20:11:18.135Z,22.23
2019-03-22T20:13:50.103Z,22.67
2019-03-22T20:16:22.176Z,23.20
2019-03-22T20:18:54.632Z,23.10
2019-03-22T20:21:26.512Z,25.10
2019-03-22T20:23:58.059Z,23.43
2019-03-22T20:26:29.888Z,22.70
2019-03-22T20:29:02.855Z,21.43
2019-03-22T20:31:34.230Z,21.33
2019-03-22T20:34:06.300Z,19.73
2019-03-22T20:36:38.707Z,19.73
2019-03-22T20:39:10.546Z,19.90
2019-03-22T20:41:42.204Z,19.80
2019-03-22T20:44:13.351Z,19.40
2019-03-22T20:46:44.587Z,19.23
2019-03-22T20:49:15.754Z,18.73
2019-03-22T20:51:47.308Z,18.03
2019-03-22T20:54:18.605Z,17.97
2019-03-22T20:56:50.362Z,17.70
2019-03-22T20:59:21.935Z,17.30
2019-03-22T21:01:54.292Z,18.03
2019-03-22T21:04:26.755Z,17.30
2019-03-22T21:06:59.109Z,18.77
2019-03-22T21:09:31.945Z,18.33
2019-03-22T21:12:04.242Z,18.80
2019-03-22T21:14:36.925Z,17.83
2019-03-22T21:17:09.990Z,17.87
2019-03-22T21:19:42.574Z,18.30
2019-03-22T21:22:14.538Z,17.90
2019-03-22T21:24:46.569Z,17.60
2019-03-22T21:27:20.397Z,18.23
2019-03-22T21:29:52.243Z,16.73
2019-03-22T21:32:24.158Z,17.10
2019-03-22T21:34:55.760Z,16.83
2019-03-22T21:37:27.215Z,18.57
2019-03-22T21:39:58.697Z,17.30
2019-03-22T21:42:30.843Z,17.13
2019-03-22T21:45:02.301Z,18.60
2019-03-22T21:47:33.860Z,16.67
2019-03-22T21:50:06.135Z,17.23
2019-03-22T21:52:38.354Z,16.17
2019-03-22T21:55:10.424Z,17.47
2019-03-22T21:57:42.222Z,16.97
2019-03-22T22:00:14.790Z,18.30
2019-03-22T22:02:46.833Z,17.57
2019-03-22T22:05:18.720Z,17.27
2019-03-22T22:07:50.663Z,19.63
2019-03-22T22:10:22.662Z,20.97
2019-03-22T22:12:55.459Z,20.90
2019-03-22T22:15:27.208Z,18.90
2019-03-22T22:17:58.609Z,19.47
2019-03-22T22:20:30.361Z,21.23
2019-03-22T22:23:02.239Z,23.03
2019-03-22T22:25:33.948Z,22.50
2019-03-22T22:28:05.999Z,22.20
2019-03-22T22:30:37.797Z,22.07
2019-03-22T22:33:09.619Z,21.13
2019-03-22T22:35:41.286Z,20.10
2019-03-22T22:38:13.275Z,22.73
2019-03-22T22:40:45.109Z,21.57
2019-03-22T22:43:17.107Z,21.50
2019-03-22T22:45:48.866Z,20.33
2019-03-22T22:48:20.868Z,20.80
2019-03-22T22:50:52.859Z,19.63
2019-03-22T22:53:24.836Z,20.33
2019-03-22T22:55:56.543Z,21.27
2019-03-22T22:58:28.521Z,21.63
2019-03-22T23:01:00.530Z,22.07
2019-03-22T23:03:32.519Z,20.50
2019-03-22T23:06:09.335Z,19.57
2019-03-22T23:08:37.443Z,22.47
2019-03-22T23:11:09.383Z,23.07
2019-03-22T23:13:41.076Z,21.43
2019-03-22T23:16:12.692Z,21.00
2019-03-22T23:18:44.194Z,21.00
2019-03-22T23:21:15.570Z,22.93
2019-03-22T23:23:47.284Z,19.03
2019-03-22T23:26:19.293Z,22.00
2019-03-22T23:28:50.820Z,22.00
2019-03-22T23:31:23.148Z,20.83
2019-03-22T23:33:54.769Z,21.50
2019-03-22T23:36:26.252Z,23.83
2019-03-22T23:38:57.685Z,22.13
2019-03-22T23:41:29.186Z,25.30
2019-03-22T23:44:00.896Z,30.20
2019-03-22T23:46:32.427Z,30.17
2019-03-22T23:49:04.001Z,31.40
2019-03-22T23:51:35.556Z,29.90
2019-03-22T23:54:06.961Z,30.63
2019-03-22T23:56:38.511Z,28.07
2019-03-22T23:59:10.344Z,24.93
